Time;durP1;ratioP1;P1;durP2;ratioP2;P2;SDS_P1;SDS_P2;PMS_P1;PMS_P2;Temp;Humidity;BMP_temperature;BMP_pressure;BME280_temperature;BME280_humidity;BME280_pressure;Samples;Min_cycle;Max_cycle;Signal;HPM_P1;HPM_P2
2023/03/17 00:01:03;;;;;;;6.20;1.93;;;8.70;99.90;;;;;;5022277;28;20151;-71
2023/03/17 00:03:31;;;;;;;6.93;2.45;;;8.60;99.90;;;;;;5031131;28;20079;-71
2023/03/17 00:05:58;;;;;;;4.03;1.73;;;8.60;99.90;;;;;;5031728;28;20424;-71
2023/03/17 00:08:44;;;;;;;7.60;2.30;;;8.60;99.90;;;;;;5033451;28;20033;-71
2023/03/17 00:11:15;;;;;;;4.03;2.17;;;8.50;99.90;;;;;;5030688;28;20324;-72
2023/03/17 00:13:42;;;;;;;2.47;1.90;;;8.40;99.90;;;;;;5035014;28;20037;-72
2023/03/17 00:16:29;;;;;;;4.38;1.75;;;8.40;99.90;;;;;;5031051;28;20024;-71
2023/03/17 00:18:56;;;;;;;3.13;1.50;;;8.40;99.90;;;;;;5027539;28;20450;-72
2023/03/17 00:21:28;;;;;;;2.63;1.50;;;8.30;99.90;;;;;;5034034;28;20344;-72
2023/03/17 00:23:55;;;;;;;3.00;1.65;;;8.30;99.90;;;;;;5033473;28;20021;-71
2023/03/17 00:26:21;;;;;;;7.20;2.17;;;8.20;99.90;;;;;;5032571;28;20116;-71
2023/03/17 00:28:47;;;;;;;4.35;1.70;;;8.20;99.90;;;;;;5033355;28;20046;-71
2023/03/17 00:31:19;;;;;;;3.37;2.20;;;8.10;99.90;;;;;;5033216;28;20412;-71
2023/03/17 00:33:47;;;;;;;4.40;2.15;;;8.10;99.90;;;;;;5030915;28;20048;-72
2023/03/17 00:36:20;;;;;;;4.47;1.80;;;8.10;99.90;;;;;;5033573;28;20089;-71
2023/03/17 00:38:46;;;;;;;4.45;1.67;;;8.10;99.90;;;;;;5030230;28;20025;-71
2023/03/17 00:41:12;;;;;;;5.55;2.35;;;8.00;99.90;;;;;;5033741;28;20017;-71
2023/03/17 00:43:39;;;;;;;5.53;2.43;;;8.00;99.90;;;;;;5032359;28;20048;-70
2023/03/17 00:46:12;;;;;;;;;;;8.00;99.90;;;;;;5027488;28;20301;-71
2023/03/17 00:48:38;;;;;;;3.15;2.10;;;8.00;99.90;;;;;;5031647;28;19959;-70
2023/03/17 00:51:04;;;;;;;11.03;2.20;;;8.00;99.90;;;;;;5026368;28;20022;-70
2023/03/17 00:53:30;;;;;;;4.37;2.07;;;8.00;99.90;;;;;;5033679;28;20037;-71
2023/03/17 00:55:56;;;;;;;4.10;2.20;;;8.00;99.90;;;;;;5033512;28;20032;-71
2023/03/17 00:58:31;;;;;;;6.07;1.93;;;7.90;99.90;;;;;;5032453;28;20030;-71
2023/03/17 01:00:58;;;;;;;3.72;2.08;;;7.90;99.90;;;;;;5021641;28;20359;-71
2023/03/17 01:03:24;;;;;;;5.13;2.08;;;7.90;99.90;;;;;;5033215;28;20032;-71
2023/03/17 01:05:52;;;;;;;3.90;1.95;;;7.80;99.90;;;;;;5031447;28;20435;-71
2023/03/17 01:08:19;;;;;;;6.20;2.10;;;7.80;99.90;;;;;;5031871;28;20369;-71
2023/03/17 01:10:45;;;;;;;;;;;7.90;99.90;;;;;;5026288;28;20032;-71
2023/03/17 01:13:12;;;;;;;7.47;1.97;;;7.90;99.90;;;;;;5033678;28;19909;-71
2023/03/17 01:15:44;;;;;;;3.33;2.40;;;7.80;99.90;;;;;;5032357;28;20030;-71
2023/03/17 01:18:12;;;;;;;3.22;1.88;;;7.80;99.90;;;;;;5030091;28;20075;-71
2023/03/17 01:20:39;;;;;;;4.35;2.08;;;7.90;99.90;;;;;;5031409;28;20112;-72
2023/03/17 01:23:05;;;;;;;5.43;2.13;;;7.90;99.90;;;;;;5032500;28;20033;-71
2023/03/17 01:25:32;;;;;;;3.55;2.05;;;8.00;99.90;;;;;;5028613;28;20033;-71
2023/03/17 01:27:58;;;;;;;3.67;2.13;;;8.00;99.90;;;;;;5031360;28;20049;-71
2023/03/17 01:30:28;;;;;;;4.07;1.85;;;8.00;99.90;;;;;;5031134;28;20064;-71
2023/03/17 01:32:56;;;;;;;5.63;1.80;;;8.10;99.90;;;;;;5032653;28;20112;-71
2023/03/17 01:35:23;;;;;;;5.38;1.90;;;8.10;99.90;;;;;;5032067;28;20112;-70
2023/03/17 01:37:49;;;;;;;4.63;1.90;;;8.10;99.90;;;;;;5031850;28;20045;-71
2023/03/17 01:40:26;;;;;;;2.60;1.80;;;8.00;99.90;;;;;;5031752;28;20053;-72
2023/03/17 01:43:07;;;;;;;2.40;1.60;;;8.00;99.90;;;;;;5031496;28;20424;-71
2023/03/17 01:46:11;;;;;;;4.60;1.80;;;8.10;99.90;;;;;;5031688;28;20044;-72
2023/03/17 01:49:04;;;;;;;3.75;2.10;;;8.00;99.90;;;;;;5033185;28;20060;-71
2023/03/17 01:51:46;;;;;;;4.35;2.22;;;8.10;99.90;;;;;;5033321;28;20029;-71
2023/03/17 01:54:21;;;;;;;3.08;1.80;;;8.00;99.90;;;;;;5030381;28;20107;-71
2023/03/17 01:56:48;;;;;;;7.90;2.08;;;8.00;99.90;;;;;;5025925;28;20309;-71
2023/03/17 01:59:22;;;;;;;4.78;2.30;;;8.00;99.90;;;;;;5034867;28;20091;-71
2023/03/17 02:01:51;;;;;;;4.13;1.75;;;8.00;99.90;;;;;;5031345;28;20025;-71
2023/03/17 02:04:18;;;;;;;4.30;2.00;;;8.00;99.90;;;;;;5033622;28;20075;-71
2023/03/17 02:06:45;;;;;;;5.60;2.15;;;7.90;99.90;;;;;;5036984;28;20352;-70
2023/03/17 02:09:11;;;;;;;2.95;2.10;;;7.90;99.90;;;;;;5036928;28;20079;-71
2023/03/17 02:11:37;;;;;;;8.17;2.00;;;8.00;99.90;;;;;;5036988;28;20021;-71
2023/03/17 02:14:03;;;;;;;2.83;1.67;;;8.00;99.90;;;;;;5030187;28;20454;-72
2023/03/17 02:16:29;;;;;;;4.23;2.50;;;8.00;99.90;;;;;;5032270;28;20050;-71
2023/03/17 02:18:55;;;;;;;4.68;2.15;;;8.10;99.90;;;;;;5032012;28;20042;-71
2023/03/17 02:21:37;;;;;;;3.43;2.10;;;8.10;99.90;;;;;;5022904;28;20040;-71
2023/03/17 02:24:09;;;;;;;2.88;2.00;;;8.10;99.90;;;;;;5030673;28;20037;-71
2023/03/17 02:26:36;;;;;;;4.85;2.10;;;8.10;99.90;;;;;;5032806;28;20026;-71
2023/03/17 02:29:02;;;;;;;;;;;8.10;99.90;;;;;;5037524;28;20048;-71
2023/03/17 02:31:29;;;;;;;2.60;1.38;;;8.10;99.90;;;;;;5034433;28;19909;-70
2023/03/17 02:33:55;;;;;;;2.70;2.17;;;8.10;99.90;;;;;;5022975;28;20042;-72
2023/03/17 02:36:21;;;;;;;4.00;1.83;;;8.20;99.90;;;;;;5023350;28;20060;-72
2023/03/17 02:38:47;;;;;;;4.13;1.97;;;8.20;99.90;;;;;;5026801;28;20056;-71
2023/03/17 02:41:13;;;;;;;5.93;2.27;;;8.20;99.90;;;;;;5036585;28;20255;-71
2023/03/17 02:43:40;;;;;;;3.80;2.03;;;8.20;99.90;;;;;;5033607;28;20017;-71
2023/03/17 02:46:06;;;;;;;3.05;1.90;;;8.20;99.90;;;;;;5035913;28;20029;-71
2023/03/17 02:48:34;;;;;;;4.18;1.80;;;8.20;99.90;;;;;;5034289;28;20037;-71
2023/03/17 02:50:59;;;;;;;3.70;2.00;;;8.20;99.90;;;;;;5034310;28;20308;-70
2023/03/17 02:53:25;;;;;;;6.30;2.00;;;8.20;99.90;;;;;;5035406;28;20022;-71
2023/03/17 02:55:51;;;;;;;1.90;1.70;;;8.20;99.90;;;;;;5031780;28;20022;-71
2023/03/17 02:58:17;;;;;;;3.37;1.90;;;8.20;99.90;;;;;;5036650;28;20454;-71
2023/03/17 03:00:43;;;;;;;3.43;1.87;;;8.20;99.90;;;;;;5035423;28;20037;-72
2023/03/17 03:03:09;;;;;;;3.40;2.50;;;8.30;99.90;;;;;;5035107;28;20069;-72
2023/03/17 03:05:35;;;;;;;3.43;1.80;;;8.20;99.90;;;;;;5035746;28;20128;-71
2023/03/17 03:08:01;;;;;;;4.88;1.90;;;8.20;99.90;;;;;;5035682;28;20041;-71
2023/03/17 03:10:26;;;;;;;5.50;2.67;;;8.20;99.90;;;;;;5029878;28;20029;-72
2023/03/17 03:12:52;;;;;;;3.13;1.83;;;8.10;99.90;;;;;;5035543;28;20057;-71
2023/03/17 03:15:19;;;;;;;3.13;1.97;;;8.10;99.90;;;;;;5036096;28;20387;-72
2023/03/17 03:17:45;;;;;;;4.60;2.08;;;8.10;99.90;;;;;;5035498;28;20048;-71
2023/03/17 03:20:12;;;;;;;2.93;2.00;;;8.00;99.90;;;;;;5035926;28;20105;-71
2023/03/17 03:22:37;;;;;;;4.80;2.25;;;8.00;99.90;;;;;;5034799;28;20033;-71
2023/03/17 03:25:04;;;;;;;2.30;1.70;;;8.00;99.90;;;;;;5035757;28;20044;-71
2023/03/17 03:27:31;;;;;;;5.68;2.13;;;8.00;99.90;;;;;;5032996;28;20360;-71
2023/03/17 03:29:56;;;;;;;4.40;2.58;;;8.10;99.90;;;;;;5034224;28;20049;-71
2023/03/17 03:32:22;;;;;;;4.27;2.10;;;8.10;99.90;;;;;;5035543;28;20456;-72
2023/03/17 03:34:48;;;;;;;2.72;1.80;;;8.10;99.90;;;;;;5027695;28;20036;-72
2023/03/17 03:37:14;;;;;;;4.13;2.17;;;8.10;99.90;;;;;;5034682;28;20032;-71
2023/03/17 03:39:40;;;;;;;7.03;2.10;;;8.10;99.90;;;;;;5031480;28;20030;-71
2023/03/17 03:42:06;;;;;;;4.13;1.97;;;8.00;99.90;;;;;;5031300;28;20029;-71
2023/03/17 03:44:32;;;;;;;3.17;1.87;;;8.00;99.90;;;;;;5029223;28;20455;-71
2023/03/17 03:46:58;;;;;;;2.67;1.92;;;8.00;99.90;;;;;;5031579;28;20052;-71
2023/03/17 03:49:24;;;;;;;5.27;2.40;;;8.00;99.90;;;;;;5018874;28;20333;-70
2023/03/17 03:51:50;;;;;;;4.88;2.17;;;8.10;99.90;;;;;;5032929;28;20431;-71
2023/03/17 03:54:15;;;;;;;7.53;2.40;;;8.10;99.90;;;;;;5026934;28;20172;-72
2023/03/17 03:56:41;;;;;;;3.53;2.13;;;8.00;99.90;;;;;;5032934;28;20030;-71
2023/03/17 03:59:08;;;;;;;3.13;2.03;;;8.00;99.90;;;;;;5026215;28;20083;-71
2023/03/17 04:01:34;;;;;;;;;;;8.00;99.90;;;;;;5027874;28;20025;-72
2023/03/17 04:04:00;;;;;;;4.65;1.83;;;8.10;99.90;;;;;;5033275;28;19916;-71
2023/03/17 04:06:26;;;;;;;4.63;2.00;;;8.00;99.90;;;;;;5027595;28;20029;-71
2023/03/17 04:08:52;;;;;;;2.90;1.80;;;8.00;99.90;;;;;;5034165;28;20033;-72
2023/03/17 04:11:18;;;;;;;4.27;2.30;;;8.00;99.90;;;;;;5028794;28;20025;-71
2023/03/17 04:13:43;;;;;;;4.73;2.07;;;8.00;99.90;;;;;;5033204;28;20033;-72
2023/03/17 04:16:09;;;;;;;6.10;1.77;;;8.00;99.90;;;;;;5031439;28;20034;-70
2023/03/17 04:18:35;;;;;;;2.80;1.90;;;8.00;99.90;;;;;;5045551;28;20073;-71
2023/03/17 04:21:01;;;;;;;7.43;2.90;;;8.00;99.90;;;;;;5016690;28;20049;-71
2023/03/17 04:23:27;;;;;;;7.50;2.40;;;8.00;99.90;;;;;;5033428;28;20037;-71
2023/03/17 04:25:53;;;;;;;3.05;1.67;;;7.90;99.90;;;;;;5032539;28;20416;-71
2023/03/17 04:28:19;;;;;;;3.23;2.13;;;7.90;99.90;;;;;;5027678;28;20049;-71
2023/03/17 04:30:45;;;;;;;3.03;1.88;;;7.90;99.90;;;;;;5034523;28;20026;-72
2023/03/17 04:33:11;;;;;;;3.20;2.20;;;7.80;99.90;;;;;;5030684;28;20041;-70
2023/03/17 04:35:37;;;;;;;5.40;2.00;;;7.90;99.90;;;;;;5031609;28;20018;-71
2023/03/17 04:38:02;;;;;;;5.67;1.90;;;7.90;99.90;;;;;;5033513;28;20029;-71
2023/03/17 04:40:29;;;;;;;5.07;2.00;;;7.90;99.90;;;;;;5034666;28;20344;-70
2023/03/17 04:42:54;;;;;;;8.55;2.35;;;7.90;99.90;;;;;;5034331;28;20037;-71
2023/03/17 04:45:20;;;;;;;6.13;2.53;;;7.90;99.90;;;;;;5033687;28;20037;-71
2023/03/17 04:47:46;;;;;;;7.77;2.10;;;7.80;99.90;;;;;;5033099;28;20064;-71
2023/03/17 04:50:12;;;;;;;4.40;2.00;;;7.80;99.90;;;;;;5033799;28;20470;-72
2023/03/17 04:52:39;;;;;;;4.25;2.35;;;7.80;99.90;;;;;;5033081;28;20124;-71
2023/03/17 04:55:09;;;;;;;3.60;1.90;;;7.80;99.90;;;;;;5030909;28;20357;-71
2023/03/17 04:57:35;;;;;;;4.32;2.22;;;7.80;99.90;;;;;;5028368;28;20060;-71
2023/03/17 05:00:01;;;;;;;3.17;2.05;;;7.80;99.90;;;;;;5034357;28;20029;-71
2023/03/17 05:02:27;;;;;;;9.27;2.40;;;7.70;99.90;;;;;;5032277;28;20423;-71
2023/03/17 05:04:53;;;;;;;5.57;2.33;;;7.80;99.90;;;;;;5034114;28;20025;-71
2023/03/17 05:07:19;;;;;;;6.03;2.67;;;7.80;99.90;;;;;;5029182;28;20044;-70
2023/03/17 05:09:45;;;;;;;8.60;2.87;;;7.70;99.90;;;;;;5029792;28;20040;-71
2023/03/17 05:12:12;;;;;;;3.80;2.10;;;7.80;99.90;;;;;;5033133;28;20041;-72
2023/03/17 05:14:38;;;;;;;3.88;2.30;;;7.80;99.90;;;;;;5034119;28;20409;-71
2023/03/17 05:17:04;;;;;;;3.67;2.30;;;7.90;99.90;;;;;;5033827;28;20037;-72
2023/03/17 05:19:29;;;;;;;5.13;1.93;;;8.00;99.90;;;;;;5032399;28;20451;-71
2023/03/17 05:21:55;;;;;;;5.27;2.30;;;8.00;99.90;;;;;;5034249;28;20171;-71
2023/03/17 05:24:21;;;;;;;5.73;2.37;;;8.00;99.90;;;;;;5032045;28;20037;-72
2023/03/17 05:26:46;;;;;;;3.13;2.10;;;8.00;99.90;;;;;;5033662;28;20112;-72
2023/03/17 05:29:13;;;;;;;5.13;1.90;;;8.00;99.90;;;;;;5027766;28;20044;-71
2023/03/17 05:31:39;;;;;;;3.70;1.98;;;8.00;99.90;;;;;;5033955;28;20022;-71
2023/03/17 05:34:05;;;;;;;3.93;1.97;;;8.00;99.90;;;;;;5035296;28;20033;-71
2023/03/17 05:36:32;;;;;;;3.70;1.93;;;8.00;99.90;;;;;;5037232;28;20317;-71
2023/03/17 05:38:58;;;;;;;5.82;2.17;;;8.00;99.90;;;;;;5037708;28;20021;-70
2023/03/17 05:41:24;;;;;;;2.53;1.70;;;8.00;99.90;;;;;;5036840;28;20408;-71
2023/03/17 05:43:49;;;;;;;5.00;1.73;;;8.00;99.90;;;;;;5037938;28;20039;-70
2023/03/17 05:46:15;;;;;;;2.77;1.97;;;8.00;99.90;;;;;;5035949;28;20029;-70
2023/03/17 05:48:41;;;;;;;4.53;2.27;;;8.10;99.90;;;;;;5037793;28;20041;-72
2023/03/17 05:51:07;;;;;;;6.30;2.90;;;8.00;99.90;;;;;;5038002;28;20033;-71
2023/03/17 05:53:32;;;;;;;5.07;2.30;;;8.00;99.90;;;;;;5036832;28;20030;-71
2023/03/17 05:55:58;;;;;;;4.30;2.30;;;8.00;99.90;;;;;;5032573;28;20029;-71
2023/03/17 05:58:24;;;;;;;5.30;2.75;;;8.00;99.90;;;;;;5033046;28;20124;-71
2023/03/17 06:00:50;;;;;;;5.63;2.17;;;7.90;99.90;;;;;;5017904;28;20037;-71
2023/03/17 06:03:16;;;;;;;4.20;2.40;;;7.80;99.90;;;;;;5036233;28;20033;-71
2023/03/17 06:05:42;;;;;;;5.30;2.25;;;7.80;99.90;;;;;;5032228;28;20099;-71
2023/03/17 06:08:07;;;;;;;6.27;2.03;;;7.80;99.90;;;;;;5031614;28;20036;-71
2023/03/17 06:10:33;;;;;;;3.50;2.27;;;7.70;99.90;;;;;;5033086;28;20444;-71
2023/03/17 06:12:59;;;;;;;4.33;2.50;;;7.70;99.90;;;;;;5037301;28;20038;-71
2023/03/17 06:15:25;;;;;;;5.30;1.90;;;7.80;99.90;;;;;;5034601;28;20048;-71
2023/03/17 06:17:51;;;;;;;3.20;2.03;;;7.80;99.90;;;;;;5032178;28;20721;-71
2023/03/17 06:20:18;;;;;;;5.05;1.98;;;7.80;99.90;;;;;;5035327;28;20412;-71
2023/03/17 06:22:44;;;;;;;;;;;7.80;99.90;;;;;;5034982;28;20087;-71
2023/03/17 06:25:11;;;;;;;5.22;1.90;;;7.90;99.90;;;;;;5030967;28;19913;-71
2023/03/17 06:27:37;;;;;;;5.20;2.10;;;7.90;99.90;;;;;;5028934;28;20433;-71
2023/03/17 06:30:05;;;;;;;5.13;2.08;;;7.90;99.90;;;;;;5033179;28;20022;-71
2023/03/17 06:32:31;;;;;;;4.32;2.20;;;7.90;99.90;;;;;;5026029;28;20026;-71
2023/03/17 06:34:57;;;;;;;5.25;2.08;;;7.90;99.90;;;;;;5034815;28;20027;-71
2023/03/17 06:37:24;;;;;;;3.60;2.13;;;7.90;99.90;;;;;;5030117;28;20022;-71
2023/03/17 06:39:49;;;;;;;5.30;1.80;;;8.10;99.90;;;;;;5034410;28;20037;-71
2023/03/17 06:42:15;;;;;;;4.15;1.90;;;8.10;99.90;;;;;;5032810;28;20036;-70
2023/03/17 06:44:41;;;;;;;3.37;2.00;;;8.20;99.90;;;;;;5032429;28;20036;-71
2023/03/17 06:47:06;;;;;;;4.30;2.57;;;8.30;99.90;;;;;;5033813;28;20025;-61
2023/03/17 06:49:32;;;;;;;9.40;3.27;;;8.40;99.90;;;;;;5027784;28;20061;-60
2023/03/17 06:51:58;;;;;;;4.33;1.97;;;8.50;99.90;;;;;;5034849;28;20025;-71
2023/03/17 06:54:24;;;;;;;6.37;2.10;;;8.70;99.90;;;;;;5033456;28;20099;-70
2023/03/17 06:56:51;;;;;;;6.20;2.50;;;8.80;99.90;;;;;;5034586;28;20032;-70
2023/03/17 06:59:18;;;;;;;6.40;2.13;;;8.90;99.90;;;;;;5028859;28;20087;-62
2023/03/17 07:01:45;;;;;;;;;;;9.10;99.90;;;;;;5034508;28;20503;-62
2023/03/17 07:04:11;;;;;;;10.75;2.28;;;9.30;99.90;;;;;;5027725;28;19909;-61
2023/03/17 07:06:38;;;;;;;2.55;1.75;;;9.40;99.90;;;;;;5035030;28;20115;-61
2023/03/17 07:09:04;;;;;;;5.20;2.25;;;9.50;99.90;;;;;;5025204;28;20029;-61
2023/03/17 07:11:31;;;;;;;6.93;2.63;;;9.70;99.90;;;;;;5035001;28;20037;-61
2023/03/17 07:13:57;;;;;;;;;;;9.80;99.90;;;;;;5032619;28;20021;-61
2023/03/17 07:16:22;;;;;;;4.63;1.87;;;9.70;99.90;;;;;;5035074;28;19935;-61
2023/03/17 07:18:49;;;;;;;4.67;2.20;;;9.60;99.90;;;;;;5034774;28;20259;-61
2023/03/17 07:21:15;;;;;;;4.75;2.25;;;9.70;99.90;;;;;;5034233;28;20091;-61
2023/03/17 07:23:41;;;;;;;10.05;2.08;;;9.60;99.90;;;;;;5024334;28;20026;-61
2023/03/17 07:26:08;;;;;;;2.87;1.57;;;9.60;99.90;;;;;;5029042;28;20018;-61
2023/03/17 07:28:35;;;;;;;3.90;1.98;;;9.60;99.90;;;;;;4988051;28;1317715;-61
2023/03/17 07:31:01;;;;;;;5.65;2.55;;;9.50;99.90;;;;;;5029235;28;20045;-61
2023/03/17 07:33:27;;;;;;;4.53;2.67;;;9.50;99.90;;;;;;5032203;28;20669;-62
2023/03/17 07:35:53;;;;;;;3.28;2.13;;;9.50;99.90;;;;;;5030291;28;20041;-61
2023/03/17 07:38:19;;;;;;;3.57;2.10;;;9.50;99.90;;;;;;5030042;28;20128;-61
2023/03/17 07:40:47;;;;;;;6.68;2.50;;;9.70;99.90;;;;;;5029285;28;20368;-61
2023/03/17 07:43:16;;;;;;;6.95;2.63;;;9.90;99.90;;;;;;5026388;28;20078;-62
2023/03/17 07:45:45;;;;;;;48.55;25.73;;;10.10;99.90;;;;;;5028659;28;20026;-61
2023/03/17 07:48:11;;;;;;;8.30;5.80;;;10.20;99.90;;;;;;5032799;28;20090;-61
2023/03/17 07:50:37;;;;;;;33.00;29.53;;;10.30;99.90;;;;;;5031908;28;20041;-61
2023/03/17 07:53:03;;;;;;;6.27;4.57;;;10.70;99.90;;;;;;5033098;28;20294;-62
2023/03/17 07:55:30;;;;;;;128.23;62.27;;;11.00;99.90;;;;;;5035067;28;20412;-61
2023/03/17 07:57:56;;;;;;;36.35;26.73;;;11.50;99.90;;;;;;5037514;28;20033;-61
2023/03/17 08:00:22;;;;;;;23.92;21.20;;;12.00;99.90;;;;;;5032996;28;20036;-71
2023/03/17 08:02:49;;;;;;;11.13;8.30;;;12.60;99.90;;;;;;5038772;28;20040;-71
2023/03/17 08:05:16;;;;;;;11.27;8.40;;;13.60;99.90;;;;;;5032937;28;20028;-61
2023/03/17 08:07:42;;;;;;;12.98;4.25;;;14.50;99.90;;;;;;5028251;28;20029;-69
2023/03/17 08:10:11;;;;;;;3.08;2.17;;;15.10;99.90;;;;;;5020264;28;20137;-62
2023/03/17 08:12:38;;;;;;;3.85;2.25;;;15.40;99.90;;;;;;5019877;28;20032;-62
2023/03/17 08:15:05;;;;;;;6.53;2.67;;;15.20;99.90;;;;;;5021904;28;20025;-61
2023/03/17 08:17:31;;;;;;;39.47;21.85;;;15.20;99.90;;;;;;5022732;28;20033;-62
2023/03/17 08:19:57;;;;;;;21.48;12.93;;;15.70;99.90;;;;;;5025792;28;20042;-62
2023/03/17 08:22:24;;;;;;;7.65;4.72;;;16.20;99.90;;;;;;5023884;28;20096;-61
2023/03/17 08:24:50;;;;;;;5.45;2.78;;;16.40;99.90;;;;;;5021334;28;20057;-62
2023/03/17 08:27:17;;;;;;;9.80;2.45;;;16.20;99.90;;;;;;5018565;28;20036;-62
2023/03/17 08:29:44;;;;;;;6.43;3.10;;;16.30;99.90;;;;;;5027395;28;20408;-61
2023/03/17 08:32:09;;;;;;;5.07;2.58;;;16.70;99.90;;;;;;5026632;28;20060;-62
2023/03/17 08:34:36;;;;;;;2.83;2.20;;;16.90;99.90;;;;;;5021347;28;20344;-62
2023/03/17 08:37:02;;;;;;;6.60;2.33;;;17.10;99.90;;;;;;5024035;28;20105;-62
2023/03/17 08:39:29;;;;;;;4.45;2.55;;;17.50;99.90;;;;;;5032832;28;20041;-62
2023/03/17 08:41:55;;;;;;;7.72;2.67;;;17.80;99.90;;;;;;5023716;28;20320;-72
2023/03/17 08:44:21;;;;;;;4.80;1.95;;;18.10;99.60;;;;;;5027924;28;20060;-62
2023/03/17 08:46:50;;;;;;;5.95;2.45;;;18.20;99.40;;;;;;5020301;28;20033;-62
2023/03/17 08:49:17;;;;;;;5.40;2.15;;;18.50;99.30;;;;;;5028704;28;20029;-62
2023/03/17 08:51:43;;;;;;;4.82;2.25;;;18.50;98.40;;;;;;5031099;28;20152;-62
2023/03/17 08:54:10;;;;;;;4.35;2.42;;;18.10;98.60;;;;;;5031947;28;20037;-71
2023/03/17 08:56:38;;;;;;;4.55;2.20;;;18.30;99.30;;;;;;4990051;28;20030;-61
2023/03/17 08:59:06;;;;;;;4.53;2.10;;;18.50;98.60;;;;;;4936366;28;20029;-62
2023/03/17 09:01:33;;;;;;;5.40;2.63;;;18.40;98.30;;;;;;4937295;28;20128;-62
2023/03/17 09:03:59;;;;;;;;;;;18.40;99.00;;;;;;4937480;28;20029;-62
2023/03/17 09:06:25;;;;;;;4.57;2.40;;;18.70;98.50;;;;;;4935656;28;19913;-62
2023/03/17 09:08:54;;;;;;;5.05;2.63;;;19.10;98.30;;;;;;4937385;28;20033;-63
2023/03/17 09:11:22;;;;;;;4.03;2.33;;;19.40;98.90;;;;;;4930699;28;20439;-63
2023/03/17 09:13:49;;;;;;;8.00;2.38;;;19.40;98.20;;;;;;4929970;28;20040;-62
2023/03/17 09:16:16;;;;;;;4.97;2.40;;;19.70;97.30;;;;;;4930453;28;20741;-62
2023/03/17 09:18:44;;;;;;;5.00;2.45;;;19.60;97.90;;;;;;4929001;28;20744;-62
2023/03/17 09:21:12;;;;;;;8.55;2.60;;;19.50;98.30;;;;;;4929956;28;20092;-62
2023/03/17 09:23:38;;;;;;;6.18;2.35;;;19.60;97.70;;;;;;4929097;28;21341;-63
2023/03/17 09:26:04;;;;;;;7.88;2.70;;;19.50;98.20;;;;;;4930565;28;20169;-62
2023/03/17 09:28:33;;;;;;;8.45;2.53;;;19.30;98.40;;;;;;4932556;28;20651;-62
2023/03/17 09:31:01;;;;;;;9.27;2.90;;;19.20;98.30;;;;;;4932679;28;20103;-62
2023/03/17 09:33:27;;;;;;;6.45;2.70;;;18.90;99.00;;;;;;4928729;28;21523;-63
2023/03/17 09:35:55;;;;;;;5.95;2.38;;;18.50;99.00;;;;;;4931453;28;20896;-63
2023/03/17 09:38:23;;;;;;;5.78;2.75;;;18.50;99.60;;;;;;4928928;28;20029;-63
2023/03/17 09:40:53;;;;;;;7.75;3.10;;;18.80;99.30;;;;;;4929126;28;23663;-63
2023/03/17 09:43:35;;;;;;;11.50;2.70;;;18.80;99.60;;;;;;4933457;28;20039;-63
2023/03/17 09:46:23;;;;;;;6.10;2.70;;;19.10;99.60;;;;;;4932732;28;20030;-63
2023/03/17 09:49:02;;;;;;;5.70;2.38;;;19.20;99.40;;;;;;4931862;28;20029;-63
2023/03/17 09:51:31;;;;;;;10.98;3.25;;;19.00;99.40;;;;;;4931173;28;20033;-63
2023/03/17 09:54:26;;;;;;;6.45;2.42;;;18.60;99.90;;;;;;4930787;28;20020;-63
2023/03/17 09:57:15;;;;;;;12.30;2.88;;;18.40;99.90;;;;;;4930202;28;20033;-63
2023/03/17 10:00:00;;;;;;;7.57;2.58;;;18.60;99.90;;;;;;4929712;28;20108;-63
2023/03/17 10:02:31;;;;;;;8.10;3.38;;;18.80;99.90;;;;;;4929437;28;20029;-64
2023/03/17 10:04:58;;;;;;;6.40;3.08;;;18.90;99.90;;;;;;4931872;28;20038;-62
2023/03/17 10:07:58;;;;;;;5.60;2.78;;;18.80;99.90;;;;;;4932725;28;20099;-63
2023/03/17 10:10:49;;;;;;;8.82;2.67;;;18.90;99.90;;;;;;4931630;28;23263;-62
2023/03/17 10:13:15;;;;;;;8.18;2.85;;;19.00;99.90;;;;;;4935803;28;20041;-62
2023/03/17 10:16:05;;;;;;;10.23;3.00;;;19.00;99.90;;;;;;4934866;28;20021;-63
2023/03/17 10:18:55;;;;;;;4.82;2.83;;;19.00;99.90;;;;;;4932462;28;20682;-63
2023/03/17 10:21:29;;;;;;;8.00;3.25;;;18.30;99.90;;;;;;4935759;28;20032;-64
2023/03/17 10:23:56;;;;;;;5.57;2.95;;;17.60;99.90;;;;;;4935411;28;20519;-63
2023/03/17 10:26:43;;;;;;;6.63;3.17;;;17.30;99.90;;;;;;4935403;28;20028;-63
2023/03/17 10:29:16;;;;;;;;;;;16.80;99.90;;;;;;4935374;28;20048;-63
2023/03/17 10:31:43;;;;;;;3.95;2.47;;;16.50;99.90;;;;;;4935437;28;20315;-62
2023/03/17 10:34:15;;;;;;;6.85;3.17;;;16.40;99.90;;;;;;4933537;28;20021;-63
2023/03/17 10:36:53;;;;;;;6.15;2.97;;;16.40;99.90;;;;;;4933846;28;20040;-63
2023/03/17 10:39:21;;;;;;;4.20;2.53;;;16.40;99.90;;;;;;4931821;28;20017;-63
2023/03/17 10:41:57;;;;;;;6.85;3.05;;;16.40;99.90;;;;;;4932297;28;20028;-63
2023/03/17 10:44:29;;;;;;;11.10;2.60;;;16.30;99.90;;;;;;4933693;28;20057;-63
2023/03/17 10:46:55;;;;;;;6.80;2.90;;;16.40;99.90;;;;;;4931540;28;20563;-63
2023/03/17 10:49:23;;;;;;;6.93;3.35;;;16.50;99.90;;;;;;4932523;28;22154;-63
2023/03/17 10:51:52;;;;;;;4.95;3.38;;;16.60;99.90;;;;;;4933880;28;20025;-63
2023/03/17 10:54:21;;;;;;;12.90;3.20;;;16.40;99.90;;;;;;4935056;28;20032;-63
2023/03/17 10:56:52;;;;;;;11.98;3.40;;;16.50;99.90;;;;;;4935087;28;23186;-63
2023/03/17 10:59:26;;;;;;;6.30;3.25;;;16.30;99.90;;;;;;4935986;28;20442;-63
2023/03/17 11:01:56;;;;;;;9.07;3.25;;;16.20;99.90;;;;;;4933106;28;20055;-63
2023/03/17 11:04:33;;;;;;;8.95;3.58;;;16.30;99.90;;;;;;4935466;28;20679;-63
2023/03/17 11:07:06;;;;;;;7.63;3.28;;;16.40;99.90;;;;;;4932663;28;21147;-63
2023/03/17 11:09:36;;;;;;;5.68;3.35;;;16.50;99.90;;;;;;4933383;28;20060;-63
2023/03/17 11:12:17;;;;;;;7.72;3.40;;;16.60;99.90;;;;;;4934045;28;20020;-64
2023/03/17 11:14:43;;;;;;;5.25;3.50;;;16.50;99.90;;;;;;4934708;28;20094;-63
2023/03/17 11:17:37;;;;;;;4.20;3.30;;;16.40;99.90;;;;;;4932045;28;20029;-63
2023/03/17 11:20:26;;;;;;;13.18;3.78;;;16.40;99.90;;;;;;4932380;28;20025;-64
2023/03/17 11:23:42;;;;;;;8.63;3.63;;;16.40;99.90;;;;;;4933122;28;20021;-64
2023/03/17 11:26:16;;;;;;;8.52;3.85;;;16.30;99.90;;;;;;4938300;28;20067;-63
2023/03/17 11:28:48;;;;;;;7.65;3.55;;;16.40;99.90;;;;;;4930701;28;20053;-63
2023/03/17 11:31:27;;;;;;;8.48;3.70;;;16.30;99.90;;;;;;4931604;28;20129;-63
2023/03/17 11:34:07;;;;;;;5.90;3.50;;;16.30;99.90;;;;;;4930341;28;20029;-63
2023/03/17 11:37:01;;;;;;;6.25;3.65;;;16.30;99.90;;;;;;4931344;28;20022;-63
2023/03/17 11:39:51;;;;;;;9.75;3.97;;;16.20;99.90;;;;;;4929693;28;20061;-63
2023/03/17 11:42:26;;;;;;;7.50;3.85;;;16.20;99.90;;;;;;4929680;28;21078;-63
2023/03/17 11:45:22;;;;;;;6.63;3.47;;;16.10;99.90;;;;;;4935064;28;20025;-63
2023/03/17 11:48:17;;;;;;;7.88;4.10;;;16.20;99.90;;;;;;4931195;28;20029;-63
2023/03/17 11:51:14;;;;;;;11.10;3.35;;;16.40;99.90;;;;;;4896964;28;20042;-63
2023/03/17 11:54:16;;;;;;;7.78;3.83;;;16.60;99.90;;;;;;4929449;28;20814;-63
2023/03/17 11:56:48;;;;;;;5.55;3.70;;;16.80;99.90;;;;;;4936861;28;20147;-63
2023/03/17 11:59:37;;;;;;;7.50;3.78;;;16.90;99.90;;;;;;4938842;28;20099;-63
2023/03/17 12:02:19;;;;;;;10.27;4.18;;;16.90;99.90;;;;;;4940959;28;20061;-63
2023/03/17 12:04:52;;;;;;;7.95;3.85;;;16.80;99.90;;;;;;4938104;28;20028;-63
2023/03/17 12:07:27;;;;;;;9.30;4.22;;;16.60;99.90;;;;;;4935612;28;20191;-63
2023/03/17 12:10:03;;;;;;;7.20;4.05;;;16.70;99.90;;;;;;4932101;28;20030;-63
2023/03/17 12:12:37;;;;;;;10.80;4.30;;;16.70;99.90;;;;;;4940854;28;20028;-63
2023/03/17 12:15:06;;;;;;;8.05;4.07;;;16.80;99.90;;;;;;4955001;28;20025;-63
2023/03/17 12:17:41;;;;;;;7.97;4.22;;;16.80;99.90;;;;;;5031774;28;20090;-63
2023/03/17 12:20:17;;;;;;;6.53;3.95;;;17.00;99.90;;;;;;5032949;28;20018;-63
2023/03/17 12:23:00;;;;;;;6.38;4.10;;;17.10;99.90;;;;;;5031875;28;20025;-73
2023/03/17 12:26:00;;;;;;;12.75;4.45;;;17.40;99.90;;;;;;5023079;28;20119;-64
2023/03/17 12:28:31;;;;;;;8.15;4.32;;;17.50;99.90;;;;;;5022976;28;20084;-64
2023/03/17 12:31:30;;;;;;;9.35;4.30;;;17.80;99.90;;;;;;5025838;28;20088;-64
2023/03/17 12:34:21;;;;;;;8.52;4.25;;;18.10;99.90;;;;;;5027813;28;20096;-74
2023/03/17 12:36:48;;;;;;;9.40;3.45;;;18.20;99.90;;;;;;5022299;28;20137;-63
2023/03/17 12:39:17;;;;;;;16.80;4.50;;;18.50;99.90;;;;;;5030995;28;20026;-74
2023/03/17 12:42:12;;;;;;;6.40;3.78;;;18.40;99.90;;;;;;5032938;28;20357;-64
2023/03/17 12:44:38;;;;;;;9.20;4.30;;;18.20;99.90;;;;;;5024720;28;20024;-63
2023/03/17 12:47:19;;;;;;;8.43;3.80;;;18.10;99.90;;;;;;5030696;28;20429;-64
2023/03/17 12:49:54;;;;;;;10.20;4.45;;;17.90;99.90;;;;;;5025765;28;20029;-63
2023/03/17 12:52:36;;;;;;;7.93;3.85;;;17.70;99.90;;;;;;5025357;28;20021;-63
2023/03/17 12:55:04;;;;;;;12.40;4.50;;;17.80;99.90;;;;;;5028406;28;20036;-63
2023/03/17 12:57:46;;;;;;;8.15;4.38;;;18.00;99.90;;;;;;5029604;28;20025;-64
2023/03/17 13:00:24;;;;;;;8.85;4.53;;;18.20;99.90;;;;;;5028802;28;20049;-64
2023/03/17 13:03:18;;;;;;;7.38;4.25;;;18.30;99.90;;;;;;5031319;28;20558;-65
2023/03/17 13:05:48;;;;;;;7.00;4.07;;;18.10;99.90;;;;;;5028650;28;20037;-64
2023/03/17 13:08:23;;;;;;;9.18;4.20;;;18.00;99.90;;;;;;5036799;28;20428;-64